createdAt,value
2019-02-22T00:02:10.054Z,101867.59
2019-02-22T00:04:38.688Z,101873.78
2019-02-22T00:07:07.342Z,101873.38
2019-02-22T00:09:35.950Z,101876.05
2019-02-22T00:12:04.663Z,101883.55
2019-02-22T00:14:33.316Z,101869.48
2019-02-22T00:17:01.950Z,101878.45
2019-02-22T00:19:30.583Z,101875.69
2019-02-22T00:21:59.260Z,101879.23
2019-02-22T00:24:27.879Z,101883.47
2019-02-22T00:26:56.504Z,101890.34
2019-02-22T00:29:25.148Z,101885.13
2019-02-22T00:31:53.810Z,101879.30
2019-02-22T00:34:22.584Z,101884.86
2019-02-22T00:36:51.193Z,101899.38
2019-02-22T00:42:07.708Z,101895.63
2019-02-22T00:44:36.349Z,101894.84
2019-02-22T00:47:05.126Z,101891.66
2019-02-22T00:49:33.796Z,101892.66
2019-02-22T00:52:02.461Z,101888.69
2019-02-22T00:54:31.179Z,101896.38
2019-02-22T00:56:59.852Z,101897.87
2019-02-22T00:59:28.491Z,101894.20
2019-02-22T01:01:57.128Z,101900.72
2019-02-22T01:04:25.749Z,101902.45
2019-02-22T01:06:54.392Z,101900.16
2019-02-22T01:09:23.041Z,101903.36
2019-02-22T01:11:51.759Z,101909.16
2019-02-22T01:14:20.397Z,101913.62
2019-02-22T01:16:49.017Z,101910.27
2019-02-22T01:19:17.661Z,101913.33
2019-02-22T01:21:46.290Z,101917.30
2019-02-22T01:24:14.924Z,101909.80
2019-02-22T01:26:43.540Z,101917.80
2019-02-22T01:29:12.200Z,101912.97
2019-02-22T01:31:40.814Z,101918.84
2019-02-22T01:34:09.435Z,101917.83
2019-02-22T01:36:38.091Z,101913.62
2019-02-22T01:39:07.039Z,101910.75
2019-02-22T01:41:35.654Z,101911.80
2019-02-22T01:44:04.271Z,101917.98
2019-02-22T01:46:32.997Z,101915.84
2019-02-22T01:49:01.640Z,101916.77
2019-02-22T01:51:30.288Z,101912.34
2019-02-22T01:53:58.945Z,101919.41
2019-02-22T01:56:27.572Z,101924.62
2019-02-22T01:58:56.207Z,101926.47
2019-02-22T02:01:24.835Z,101931.13
2019-02-22T02:06:45.016Z,101937.12
2019-02-22T02:09:13.647Z,101934.64
2019-02-22T02:11:42.280Z,101938.25
2019-02-22T02:14:11.007Z,101933.55
2019-02-22T02:16:39.716Z,101932.24
2019-02-22T02:19:08.361Z,101937.75
2019-02-22T02:21:37.006Z,101939.28
2019-02-22T02:24:05.754Z,101945.09
2019-02-22T02:26:34.407Z,101934.50
2019-02-22T02:29:03.108Z,101943.26
2019-02-22T02:31:31.753Z,101953.72
2019-02-22T02:34:00.438Z,101950.44
2019-02-22T02:36:29.172Z,101944.22
2019-02-22T02:38:57.799Z,101951.61
2019-02-22T02:41:26.410Z,101958.00
2019-02-22T02:43:55.051Z,101955.41
2019-02-22T02:46:23.686Z,101951.52
2019-02-22T02:48:52.320Z,101954.11
2019-02-22T02:51:20.959Z,101951.48
2019-02-22T02:53:49.606Z,101953.31
2019-02-22T02:56:18.239Z,101952.66
2019-02-22T02:58:46.867Z,101951.34
2019-02-22T03:01:15.506Z,101959.27
2019-02-22T03:03:44.135Z,101954.78
2019-02-22T03:09:10.450Z,101951.47
2019-02-22T03:11:39.110Z,101956.05
2019-02-22T03:14:07.739Z,101965.58
2019-02-22T03:16:36.477Z,101973.94
2019-02-22T03:19:05.103Z,101975.75
2019-02-22T03:21:33.750Z,101977.30
2019-02-22T03:24:02.383Z,101975.48
2019-02-22T03:26:30.997Z,101981.73
2019-02-22T03:28:59.631Z,101978.83
2019-02-22T03:31:28.325Z,101970.33
2019-02-22T03:33:56.995Z,101974.17
2019-02-22T03:36:25.606Z,101977.62
2019-02-22T03:38:54.243Z,101983.23
2019-02-22T03:41:32.456Z,101977.45
2019-02-22T03:43:53.240Z,101983.87
2019-02-22T03:46:21.875Z,101982.47
2019-02-22T03:48:50.516Z,101988.09
2019-02-22T03:51:19.162Z,101998.64
2019-02-22T03:54:06.858Z,101999.56
2019-02-22T03:56:35.648Z,101996.34
2019-02-22T03:59:04.378Z,101991.44
2019-02-22T04:01:33.011Z,101993.05
2019-02-22T04:04:01.716Z,101997.22
2019-02-22T04:06:30.338Z,102000.36
2019-02-22T04:08:58.953Z,102003.88
2019-02-22T04:11:27.606Z,102014.94
2019-02-22T04:13:56.236Z,102010.95
2019-02-22T04:16:24.885Z,102009.05
2019-02-22T04:18:53.493Z,102015.03
2019-02-22T04:21:22.136Z,102004.08
2019-02-22T04:23:50.823Z,102004.08
2019-02-22T04:26:19.561Z,102014.37
2019-02-22T04:28:48.244Z,102012.43
2019-02-22T04:31:16.897Z,102008.36
2019-02-22T04:33:45.526Z,102003.86
2019-02-22T04:36:14.212Z,102005.42
2019-02-22T04:38:42.874Z,102006.63
2019-02-22T04:41:11.537Z,102002.98
2019-02-22T04:43:40.147Z,102007.02
2019-02-22T04:46:08.825Z,102007.73
2019-02-22T04:48:37.493Z,102000.39
2019-02-22T04:51:06.153Z,101992.06
2019-02-22T04:53:34.785Z,101997.73
2019-02-22T04:56:03.469Z,102003.13
2019-02-22T04:58:32.065Z,102007.81
2019-02-22T05:01:00.743Z,102009.48
2019-02-22T05:03:29.346Z,102009.81
2019-02-22T05:05:58.054Z,102013.20
2019-02-22T05:08:26.717Z,102013.93
2019-02-22T05:10:55.379Z,102025.66
2019-02-22T05:13:24.052Z,102018.55
2019-02-22T05:15:52.663Z,102023.44
2019-02-22T05:18:21.303Z,102028.55
2019-02-22T05:20:49.938Z,102025.64
2019-02-22T05:23:18.587Z,102032.98
2019-02-22T05:25:47.221Z,102035.98
2019-02-22T05:28:15.870Z,102037.94
2019-02-22T05:30:44.483Z,102047.47
2019-02-22T05:33:13.138Z,102054.56
2019-02-22T05:35:41.835Z,102058.94
2019-02-22T05:38:10.471Z,102063.31
2019-02-22T05:40:39.111Z,102072.52
2019-02-22T05:43:07.759Z,102070.52
2019-02-22T05:45:36.378Z,102076.55
2019-02-22T05:48:05.117Z,102073.84
2019-02-22T05:50:33.813Z,102086.58
2019-02-22T05:53:02.621Z,102078.55
2019-02-22T05:55:31.254Z,102081.29
2019-02-22T05:58:00.018Z,102084.22
2019-02-22T06:00:28.636Z,102090.00
2019-02-22T06:03:16.520Z,102090.84
2019-02-22T06:05:45.176Z,102100.52
2019-02-22T06:08:13.817Z,102094.77
2019-02-22T06:10:42.455Z,102097.28
2019-02-22T06:13:11.331Z,102091.73
2019-02-22T06:15:40.058Z,102089.61
2019-02-22T06:18:08.789Z,102093.81
2019-02-22T06:20:37.528Z,102096.69
2019-02-22T06:23:06.256Z,102099.45
2019-02-22T06:25:34.978Z,102113.89
2019-02-22T06:28:03.591Z,102118.59
2019-02-22T06:30:32.230Z,102130.63
2019-02-22T06:33:00.940Z,102138.33
2019-02-22T06:35:29.782Z,102142.47
2019-02-22T06:37:58.546Z,102137.77
2019-02-22T06:40:27.207Z,102135.74
2019-02-22T06:42:55.908Z,102137.44
2019-02-22T06:45:24.641Z,102142.47
2019-02-22T06:47:53.284Z,102144.50
2019-02-22T06:50:33.142Z,102150.34
2019-02-22T06:52:52.409Z,102140.36
2019-02-22T06:55:21.127Z,102144.25
2019-02-22T06:57:49.807Z,102145.80
2019-02-22T07:00:18.444Z,102150.81
2019-02-22T07:02:47.131Z,102150.77
2019-02-22T07:05:15.844Z,102149.08
2019-02-22T07:07:44.483Z,102146.52
2019-02-22T07:10:13.154Z,102148.55
2019-02-22T07:15:35.323Z,102163.67
2019-02-22T07:18:04.226Z,102164.93
2019-02-22T07:20:32.988Z,102174.25
2019-02-22T07:23:01.630Z,102179.12
2019-02-22T07:25:30.273Z,102177.09
2019-02-22T07:27:58.922Z,102181.39
2019-02-22T07:33:23.187Z,102205.02
2019-02-22T07:35:52.096Z,102209.16
2019-02-22T07:38:20.730Z,102209.45
2019-02-22T07:40:49.346Z,102195.78
2019-02-22T07:43:17.995Z,102187.62
2019-02-22T07:45:46.661Z,102190.78
2019-02-22T07:48:15.542Z,102198.66
2019-02-22T07:50:44.143Z,102210.09
2019-02-22T07:53:12.849Z,102212.47
2019-02-22T07:55:41.641Z,102218.23
2019-02-22T07:58:10.266Z,102224.83
2019-02-22T08:00:39.290Z,102223.03
2019-02-22T08:03:07.943Z,102226.59
2019-02-22T08:05:36.578Z,102238.26
2019-02-22T08:08:05.203Z,102243.33
2019-02-22T08:10:34.292Z,102242.02
2019-02-22T08:13:02.922Z,102236.00
2019-02-22T08:15:31.634Z,102234.50
2019-02-22T08:18:00.468Z,102237.89
2019-02-22T08:20:29.100Z,102241.09
2019-02-22T08:22:57.730Z,102254.06
2019-02-22T08:25:26.373Z,102252.09
2019-02-22T08:27:54.996Z,102255.09
2019-02-22T08:30:23.664Z,102263.42
2019-02-22T08:32:52.304Z,102268.13
2019-02-22T08:35:20.956Z,102270.45
2019-02-22T08:37:49.612Z,102273.63
2019-02-22T08:40:18.308Z,102281.05
2019-02-22T08:42:46.964Z,102280.48
2019-02-22T08:45:15.590Z,102285.86
2019-02-22T08:47:44.254Z,102286.91
2019-02-22T08:50:14.472Z,102289.23
2019-02-22T08:52:43.290Z,102294.29
2019-02-22T08:55:11.923Z,102284.09
2019-02-22T08:57:40.606Z,102287.65
2019-02-22T09:03:04.201Z,102300.19
2019-02-22T09:05:32.828Z,102297.23
2019-02-22T09:08:01.439Z,102299.42
2019-02-22T09:10:30.092Z,102300.23
2019-02-22T09:12:58.886Z,102302.42
2019-02-22T09:15:27.765Z,102302.30
2019-02-22T09:17:56.374Z,102305.31
2019-02-22T09:20:25.075Z,102314.23
2019-02-22T09:22:53.798Z,102322.80
2019-02-22T09:25:22.618Z,102326.68
2019-02-22T09:27:51.252Z,102321.69
2019-02-22T09:30:19.987Z,102328.11
2019-02-22T09:32:48.701Z,102332.86
2019-02-22T09:35:17.419Z,102325.78
2019-02-22T09:37:46.150Z,102332.48
2019-02-22T09:40:15.078Z,102333.71
2019-02-22T09:42:43.729Z,102331.06
2019-02-22T09:45:12.467Z,102336.42
2019-02-22T09:47:41.527Z,102344.50
2019-02-22T09:50:11.391Z,102344.20
2019-02-22T09:52:40.061Z,102341.36
2019-02-22T09:55:10.186Z,102335.50
2019-02-22T09:57:38.869Z,102338.70
2019-02-22T10:00:09.791Z,102344.77
2019-02-22T10:02:38.489Z,102347.12
2019-02-22T10:05:08.192Z,102349.47
2019-02-22T10:07:36.949Z,102350.80
2019-02-22T10:10:06.160Z,102347.63
2019-02-22T10:12:34.785Z,102355.86
2019-02-22T10:15:03.504Z,102340.89
2019-02-22T10:17:32.140Z,102340.70
2019-02-22T10:20:01.660Z,102340.36
2019-02-22T10:22:31.084Z,102352.60
2019-02-22T10:24:59.701Z,102353.95
2019-02-22T10:27:28.395Z,102354.95
2019-02-22T10:29:56.995Z,102353.78
2019-02-22T10:32:25.620Z,102352.44
2019-02-22T10:34:54.268Z,102358.09
2019-02-22T10:37:22.889Z,102358.93
2019-02-22T10:39:51.572Z,102354.09
2019-02-22T10:42:20.203Z,102360.52
2019-02-22T10:44:48.881Z,102370.97
2019-02-22T10:47:17.547Z,102368.64
2019-02-22T10:49:46.189Z,102375.36
2019-02-22T10:52:14.780Z,102375.37
2019-02-22T10:54:43.458Z,102384.61
2019-02-22T10:57:12.085Z,102380.08
2019-02-22T10:59:40.703Z,102390.16
2019-02-22T11:02:09.430Z,102400.58
2019-02-22T11:04:38.060Z,102395.38
2019-02-22T11:07:06.684Z,102403.45
2019-02-22T11:09:35.341Z,102396.41
2019-02-22T11:12:03.963Z,102392.37
2019-02-22T11:14:32.624Z,102400.45
2019-02-22T11:17:01.249Z,102398.27
2019-02-22T11:19:29.966Z,102392.58
2019-02-22T11:21:58.618Z,102395.09
2019-02-22T11:24:27.244Z,102397.96
2019-02-22T11:26:55.859Z,102397.60
2019-02-22T11:29:24.481Z,102408.04
2019-02-22T11:31:53.114Z,102404.14
2019-02-22T11:34:21.728Z,102413.72
2019-02-22T11:36:50.359Z,102411.89
2019-02-22T11:39:18.972Z,102416.05
2019-02-22T11:41:47.644Z,102415.89
2019-02-22T11:44:16.280Z,102419.75
2019-02-22T11:46:44.904Z,102412.77
2019-02-22T11:49:13.569Z,102415.84
2019-02-22T11:51:42.213Z,102419.34
2019-02-22T11:54:10.864Z,102414.81
2019-02-22T11:56:39.522Z,102416.14
2019-02-22T11:59:08.320Z,102427.38
2019-02-22T12:01:37.089Z,102427.39
2019-02-22T12:04:05.928Z,102429.72
2019-02-22T12:06:34.550Z,102425.15
2019-02-22T12:11:52.504Z,102432.42
2019-02-22T12:14:21.108Z,102433.58
2019-02-22T12:16:49.749Z,102432.91
2019-02-22T12:19:18.387Z,102429.86
2019-02-22T12:21:47.047Z,102439.14
2019-02-22T12:24:15.647Z,102444.13
2019-02-22T12:26:44.353Z,102451.48
2019-02-22T12:29:12.980Z,102443.90
2019-02-22T12:31:41.621Z,102441.78
2019-02-22T12:34:10.245Z,102454.85
2019-02-22T12:36:38.943Z,102456.55
2019-02-22T12:39:07.672Z,102460.64
2019-02-22T12:41:36.351Z,102463.53
2019-02-22T12:44:05.050Z,102473.62
2019-02-22T12:46:33.679Z,102472.12
2019-02-22T12:49:02.344Z,102473.97
2019-02-22T12:51:31.100Z,102471.45
2019-02-22T12:53:59.758Z,102466.94
2019-02-22T12:56:55.777Z,102470.50
2019-02-22T13:01:53.292Z,102472.34
2019-02-22T13:04:21.925Z,102470.95
2019-02-22T13:06:50.555Z,102482.61
2019-02-22T13:09:19.250Z,102480.27
2019-02-22T13:11:47.864Z,102479.92
2019-02-22T13:14:16.484Z,102483.46
2019-02-22T13:16:45.093Z,102481.11
2019-02-22T13:19:13.748Z,102479.72
2019-02-22T13:21:42.438Z,102487.55
2019-02-22T13:24:11.149Z,102491.13
2019-02-22T13:26:39.782Z,102500.88
2019-02-22T13:29:08.449Z,102497.33
2019-02-22T13:31:37.179Z,102495.28
2019-02-22T13:34:05.936Z,102494.89
2019-02-22T13:36:34.562Z,102502.78
2019-02-22T13:41:39.071Z,102503.80
2019-02-22T13:44:07.759Z,102502.60
2019-02-22T13:46:36.400Z,102504.95
2019-02-22T13:49:25.888Z,102494.09
2019-02-22T13:51:54.508Z,102498.23
2019-02-22T13:54:23.182Z,102490.18
2019-02-22T13:56:51.805Z,102492.87
2019-02-22T13:59:20.443Z,102487.33
2019-02-22T14:01:49.057Z,102494.05
2019-02-22T14:04:17.701Z,102490.78
2019-02-22T14:06:46.305Z,102501.37
2019-02-22T14:09:14.944Z,102500.01
2019-02-22T14:11:43.567Z,102497.56
2019-02-22T14:14:12.200Z,102498.26
2019-02-22T14:16:40.823Z,102500.59
2019-02-22T14:19:09.461Z,102502.61
2019-02-22T14:21:38.092Z,102510.70
2019-02-22T14:24:06.731Z,102511.53
2019-02-22T14:26:35.337Z,102515.37
2019-02-22T14:29:03.967Z,102515.33
2019-02-22T14:31:32.610Z,102514.43
2019-02-22T14:34:01.267Z,102519.16
2019-02-22T14:36:30.239Z,102517.73
2019-02-22T14:38:58.866Z,102525.55
2019-02-22T14:41:28.064Z,102526.05
2019-02-22T14:43:57.997Z,102524.70
2019-02-22T14:46:26.632Z,102530.11
2019-02-22T14:48:55.244Z,102529.94
2019-02-22T14:51:23.927Z,102528.41
2019-02-22T14:53:52.583Z,102526.52
2019-02-22T14:56:21.214Z,102524.42
2019-02-22T14:58:49.864Z,102525.60
2019-02-22T15:01:18.505Z,102528.76
2019-02-22T15:03:47.189Z,102524.53
2019-02-22T15:06:18.040Z,102526.22
2019-02-22T15:08:46.654Z,102530.77
2019-02-22T15:11:15.421Z,102529.78
2019-02-22T15:13:44.051Z,102536.52
2019-02-22T15:16:31.715Z,102535.35
2019-02-22T15:19:00.354Z,102541.75
2019-02-22T15:21:28.978Z,102537.02
2019-02-22T15:23:57.590Z,102541.70
2019-02-22T15:26:26.266Z,102549.88
2019-02-22T15:28:54.994Z,102552.26
2019-02-22T15:31:23.774Z,102560.48
2019-02-22T15:33:52.544Z,102560.43
2019-02-22T15:36:21.246Z,102559.82
2019-02-22T15:38:49.879Z,102559.98
2019-02-22T15:41:18.525Z,102562.19
2019-02-22T15:43:47.267Z,102557.49
2019-02-22T15:46:15.936Z,102562.15
2019-02-22T15:48:44.625Z,102552.86
2019-02-22T15:53:49.094Z,102550.27
2019-02-22T15:56:18.522Z,102554.04
2019-02-22T15:58:48.117Z,102544.58
2019-02-22T16:01:16.785Z,102542.70
2019-02-22T16:04:04.383Z,102538.29
2019-02-22T16:06:33.021Z,102539.59
2019-02-22T16:09:01.636Z,102530.50
2019-02-22T16:11:30.343Z,102532.14
2019-02-22T16:13:58.961Z,102532.95
2019-02-22T16:16:27.620Z,102534.27
2019-02-22T16:18:56.279Z,102529.84
2019-02-22T16:21:25.009Z,102533.66
2019-02-22T16:24:00.351Z,102530.78
2019-02-22T16:26:30.816Z,102526.00
2019-02-22T16:28:59.462Z,102520.02
2019-02-22T16:31:28.204Z,102529.33
2019-02-22T16:33:56.811Z,102526.40
2019-02-22T16:36:25.449Z,102532.78
2019-02-22T16:38:54.077Z,102529.25
2019-02-22T16:41:41.922Z,102528.23
2019-02-22T16:44:10.544Z,102523.03
2019-02-22T16:46:39.190Z,102536.44
2019-02-22T16:49:07.825Z,102534.56
2019-02-22T16:51:36.470Z,102530.74
2019-02-22T16:54:05.215Z,102540.97
2019-02-22T16:56:33.832Z,102539.75
2019-02-22T16:59:02.474Z,102534.39
2019-02-22T17:01:31.104Z,102538.00
2019-02-22T17:03:59.743Z,102541.22
2019-02-22T17:06:28.512Z,102546.05
2019-02-22T17:08:57.155Z,102550.40
2019-02-22T17:11:25.819Z,102546.43
2019-02-22T17:13:54.490Z,102550.86
2019-02-22T17:16:23.138Z,102549.62
2019-02-22T17:18:51.823Z,102554.28
2019-02-22T17:21:20.440Z,102552.73
2019-02-22T17:23:49.091Z,102548.17
2019-02-22T17:26:17.711Z,102551.59
2019-02-22T17:28:46.410Z,102554.55
2019-02-22T17:31:15.040Z,102550.02
2019-02-22T17:33:43.891Z,102551.27
2019-02-22T17:36:12.540Z,102548.74
2019-02-22T17:38:41.241Z,102547.34
2019-02-22T17:41:09.887Z,102562.49
2019-02-22T17:43:38.575Z,102559.11
2019-02-22T17:46:07.374Z,102561.87
2019-02-22T17:48:35.991Z,102567.17
2019-02-22T17:51:04.694Z,102566.41
2019-02-22T17:53:33.435Z,102568.17
2019-02-22T17:56:02.073Z,102565.28
2019-02-22T17:58:30.690Z,102567.61
2019-02-22T18:00:59.427Z,102567.31
2019-02-22T18:03:28.060Z,102561.00
2019-02-22T18:05:56.696Z,102564.80
2019-02-22T18:08:25.335Z,102561.83
2019-02-22T18:10:54.002Z,102561.84
2019-02-22T18:13:22.640Z,102566.00
2019-02-22T18:15:51.343Z,102568.89
2019-02-22T18:21:09.326Z,102583.03
2019-02-22T18:23:37.992Z,102583.52
2019-02-22T18:26:06.620Z,102593.06
2019-02-22T18:28:35.277Z,102590.83
2019-02-22T18:31:03.914Z,102595.73
2019-02-22T18:33:32.581Z,102600.75
2019-02-22T18:36:01.232Z,102602.86
2019-02-22T18:38:29.872Z,102606.24
2019-02-22T18:40:58.535Z,102604.83
2019-02-22T18:43:27.146Z,102602.08
2019-02-22T18:45:55.829Z,102599.73
2019-02-22T18:48:24.447Z,102595.05
2019-02-22T18:50:53.201Z,102595.17
2019-02-22T18:53:21.855Z,102597.54
2019-02-22T18:55:50.613Z,102599.66
2019-02-22T18:58:19.211Z,102598.02
2019-02-22T19:00:48.072Z,102608.24
2019-02-22T19:03:16.646Z,102611.72
2019-02-22T19:05:45.345Z,102618.73
2019-02-22T19:08:14.064Z,102620.70
2019-02-22T19:10:42.692Z,102622.34
2019-02-22T19:13:11.361Z,102622.63
2019-02-22T19:15:40.050Z,102630.48
2019-02-22T19:18:08.690Z,102625.73
2019-02-22T19:20:37.316Z,102627.52
2019-02-22T19:23:05.980Z,102630.18
2019-02-22T19:25:34.605Z,102633.23
2019-02-22T19:28:03.243Z,102640.44
2019-02-22T19:30:31.861Z,102655.43
2019-02-22T19:33:00.518Z,102656.28
2019-02-22T19:35:29.135Z,102663.34
2019-02-22T19:37:57.791Z,102658.48
2019-02-22T19:40:26.628Z,102663.34
2019-02-22T19:42:55.333Z,102663.10
2019-02-22T19:45:24.103Z,102672.79
2019-02-22T19:47:52.767Z,102672.37
2019-02-22T19:50:21.379Z,102672.03
2019-02-22T19:52:50.113Z,102674.37
2019-02-22T19:55:18.797Z,102679.33
2019-02-22T19:57:47.409Z,102685.95
2019-02-22T20:00:16.417Z,102681.84
2019-02-22T20:02:45.194Z,102679.41
2019-02-22T20:05:14.013Z,102677.22
2019-02-22T20:07:42.744Z,102671.59
2019-02-22T20:10:17.934Z,102684.55
2019-02-22T20:12:43.219Z,102685.17
2019-02-22T20:15:13.300Z,102684.69
2019-02-22T20:17:52.586Z,102683.97
2019-02-22T20:20:31.554Z,102686.68
2019-02-22T20:23:00.181Z,102688.05
2019-02-22T20:25:28.814Z,102688.31
2019-02-22T20:27:57.486Z,102682.98
2019-02-22T20:30:26.206Z,102685.48
2019-02-22T20:32:54.793Z,102693.27
2019-02-22T20:35:23.591Z,102694.61
2019-02-22T20:37:53.429Z,102698.00
2019-02-22T20:40:22.631Z,102699.81
2019-02-22T20:42:51.231Z,102696.91
2019-02-22T20:45:19.887Z,102699.84
2019-02-22T20:47:48.575Z,102703.12
2019-02-22T20:50:17.434Z,102701.45
2019-02-22T20:52:46.036Z,102703.54
2019-02-22T20:55:14.888Z,102708.39
2019-02-22T20:57:43.589Z,102721.84
2019-02-22T21:03:03.829Z,102724.65
2019-02-22T21:05:32.804Z,102726.83
2019-02-22T21:08:01.622Z,102734.36
2019-02-22T21:10:30.298Z,102738.34
2019-02-22T21:12:58.932Z,102730.24
2019-02-22T21:15:27.671Z,102737.63
2019-02-22T21:17:56.309Z,102742.34
2019-02-22T21:20:24.954Z,102735.23
2019-02-22T21:22:53.593Z,102743.72
2019-02-22T21:25:22.290Z,102749.51
2019-02-22T21:27:50.921Z,102747.33
2019-02-22T21:30:19.778Z,102751.45
2019-02-22T21:32:48.532Z,102743.94
2019-02-22T21:35:17.397Z,102736.90
2019-02-22T21:37:46.308Z,102733.64
2019-02-22T21:40:15.001Z,102746.23
2019-02-22T21:42:43.758Z,102734.97
2019-02-22T21:45:12.943Z,102728.56
2019-02-22T21:47:53.721Z,102730.72
2019-02-22T21:50:12.963Z,102731.95
2019-02-22T21:52:41.818Z,102734.98
2019-02-22T21:55:11.337Z,102725.90
2019-02-22T21:57:40.277Z,102733.39
2019-02-22T22:00:12.481Z,102730.48
2019-02-22T22:02:41.216Z,102732.67
2019-02-22T22:05:10.147Z,102742.61
2019-02-22T22:07:39.078Z,102746.11
2019-02-22T22:10:08.114Z,102742.98
2019-02-22T22:12:37.104Z,102733.05
2019-02-22T22:15:06.329Z,102728.56
2019-02-22T22:17:35.338Z,102723.18
2019-02-22T22:20:04.586Z,102719.57
2019-02-22T22:22:33.380Z,102731.66
2019-02-22T22:25:02.232Z,102728.39
2019-02-22T22:27:31.227Z,102728.77
2019-02-22T22:29:59.976Z,102731.91
2019-02-22T22:32:28.710Z,102734.59
2019-02-22T22:34:57.473Z,102735.91
2019-02-22T22:37:26.393Z,102743.88
2019-02-22T22:39:55.275Z,102744.86
2019-02-22T22:42:24.146Z,102754.78
2019-02-22T22:44:52.847Z,102759.29
2019-02-22T22:47:21.580Z,102762.91
2019-02-22T22:49:50.210Z,102762.52
2019-02-22T22:52:18.919Z,102762.78
2019-02-22T22:54:47.781Z,102754.50
2019-02-22T22:57:16.708Z,102761.16
2019-02-22T22:59:45.780Z,102762.34
2019-02-22T23:02:14.559Z,102764.16
2019-02-22T23:04:43.370Z,102774.06
2019-02-22T23:07:12.386Z,102785.52
2019-02-22T23:09:41.192Z,102784.70
2019-02-22T23:12:10.028Z,102781.45
2019-02-22T23:14:38.896Z,102784.17
2019-02-22T23:17:07.715Z,102776.27
2019-02-22T23:19:36.332Z,102783.92
2019-02-22T23:22:05.220Z,102789.75
2019-02-22T23:24:35.912Z,102790.83
2019-02-22T23:27:04.615Z,102798.52
2019-02-22T23:29:33.248Z,102808.05
2019-02-22T23:32:01.874Z,102800.80
2019-02-22T23:34:30.504Z,102813.70
2019-02-22T23:36:59.145Z,102814.60
2019-02-22T23:39:27.777Z,102825.87
2019-02-22T23:41:56.498Z,102819.66
2019-02-22T23:44:25.159Z,102822.79
2019-02-22T23:46:53.868Z,102818.92
2019-02-22T23:49:22.453Z,102820.34
2019-02-22T23:51:51.081Z,102833.48
2019-02-22T23:54:19.730Z,102832.78
2019-02-22T23:56:48.444Z,102830.09
2019-02-22T23:59:17.169Z,102837.77
